createdAt,value
2019-03-31T18:14:42.843Z,113.32
2019-03-31T18:17:12.647Z,112.60
2019-03-31T18:24:15.861Z,5.83
2019-03-31T18:35:17.708Z,7.80
2019-03-31T19:09:25.928Z,4.90
2019-03-31T19:12:17.983Z,4.80
2019-03-31T19:15:06.897Z,3.27
2019-03-31T19:17:49.799Z,4.43
2019-03-31T19:20:33.628Z,6.67
2019-03-31T19:23:09.607Z,3.77
2019-03-31T19:28:26.656Z,7.70
2019-03-31T19:31:08.041Z,4.07
2019-03-31T19:33:55.290Z,4.60
2019-03-31T19:36:46.257Z,5.73
2019-03-31T19:39:43.829Z,5.20
2019-03-31T19:42:26.090Z,6.47
2019-03-31T19:45:12.490Z,7.43
2019-03-31T19:50:28.058Z,3.62
2019-03-31T19:56:07.912Z,7.60
2019-03-31T19:59:08.711Z,4.43
2019-03-31T20:01:42.484Z,4.20
2019-03-31T20:04:28.660Z,4.97
2019-03-31T20:07:05.008Z,7.73
2019-03-31T20:10:56.623Z,4.97
2019-03-31T20:18:00.250Z,3.27
2019-03-31T20:26:10.523Z,3.83
2019-03-31T20:29:02.418Z,0.87
2019-03-31T20:31:39.889Z,0.10
2019-03-31T20:34:20.824Z,0.67
2019-03-31T20:39:56.104Z,0.40
2019-03-31T20:42:22.294Z,0.67
2019-03-31T20:44:52.244Z,0.67
2019-03-31T20:47:22.512Z,0.20
2019-03-31T20:49:52.532Z,0.40
2019-03-31T20:52:23.112Z,0.63
2019-03-31T20:54:54.668Z,0.37
2019-03-31T20:57:25.376Z,2.83
2019-03-31T20:59:56.596Z,0.17
2019-03-31T21:02:26.796Z,0.10
2019-03-31T21:04:56.491Z,0.10
2019-03-31T21:07:26.223Z,1.40
2019-03-31T21:09:55.949Z,0.40
2019-03-31T21:12:25.676Z,1.00
2019-03-31T21:14:55.421Z,0.10
2019-03-31T21:17:25.182Z,0.10
2019-03-31T21:19:55.178Z,0.10
2019-03-31T21:22:25.028Z,0.67
2019-03-31T21:24:54.784Z,0.43
2019-03-31T21:27:24.565Z,0.77
2019-03-31T21:29:54.317Z,0.30
2019-03-31T21:32:24.019Z,1.10
2019-03-31T21:34:53.742Z,0.93
2019-03-31T21:37:23.405Z,1.50
2019-03-31T21:39:53.225Z,0.63
2019-03-31T21:42:23.047Z,0.83
2019-03-31T21:44:52.778Z,0.10
2019-03-31T21:47:22.754Z,0.27
2019-03-31T21:49:52.490Z,2.07
2019-03-31T21:52:22.229Z,0.30
2019-03-31T21:54:52.053Z,1.80
2019-03-31T21:57:21.852Z,1.50
2019-03-31T21:59:51.708Z,2.30
2019-03-31T22:02:22.006Z,0.30
2019-03-31T22:04:52.740Z,0.97
2019-03-31T22:07:22.464Z,0.37
2019-03-31T22:09:52.385Z,0.40
2019-03-31T22:12:22.122Z,1.30
2019-03-31T22:14:52.053Z,0.20
2019-03-31T22:17:21.873Z,0.70
2019-03-31T22:19:51.750Z,2.63
2019-03-31T22:22:21.526Z,2.00
2019-03-31T22:24:51.334Z,0.40
2019-03-31T22:27:21.045Z,1.10
2019-03-31T22:29:50.954Z,1.73
2019-03-31T22:32:20.703Z,0.43
2019-03-31T22:34:50.383Z,4.53
2019-03-31T22:37:20.049Z,1.43
2019-03-31T22:39:49.783Z,0.97
2019-03-31T22:42:19.549Z,0.37
2019-03-31T22:44:49.326Z,1.50
2019-03-31T22:47:19.089Z,0.30
2019-03-31T22:49:50.003Z,1.33
2019-03-31T22:52:19.892Z,0.73
2019-03-31T22:54:50.634Z,1.63
2019-03-31T22:57:20.296Z,1.87
2019-03-31T22:59:50.133Z,0.80
2019-03-31T23:02:19.928Z,0.30
2019-03-31T23:04:49.778Z,0.60
2019-03-31T23:07:19.531Z,3.50
2019-03-31T23:09:49.273Z,1.37
2019-03-31T23:12:19.084Z,0.27
2019-03-31T23:14:48.903Z,0.93
2019-03-31T23:17:18.607Z,3.83
2019-03-31T23:19:48.396Z,3.70
2019-03-31T23:22:18.187Z,1.30
2019-03-31T23:24:48.049Z,1.10
2019-03-31T23:27:17.915Z,4.37
2019-03-31T23:29:47.773Z,0.40
2019-03-31T23:32:17.495Z,1.30
2019-03-31T23:34:47.459Z,3.00
2019-03-31T23:37:17.138Z,1.10
2019-03-31T23:39:46.866Z,1.17
2019-03-31T23:42:16.535Z,0.83
2019-03-31T23:44:46.368Z,1.23
2019-03-31T23:47:16.065Z,7.43
2019-03-31T23:49:45.777Z,0.77
2019-03-31T23:52:15.520Z,2.80
2019-03-31T23:54:45.263Z,0.87
2019-03-31T23:57:14.928Z,0.43
2019-03-31T23:59:44.755Z,0.77
